createdAt,value
2018-03-17T00:01:15.164Z,12.70
2018-03-17T00:03:41.825Z,12.83
2018-03-17T00:06:08.890Z,35.77
2018-03-17T00:08:35.544Z,13.57
2018-03-17T00:11:02.189Z,14.70
2018-03-17T00:13:29.119Z,14.67
2018-03-17T00:15:55.773Z,13.13
2018-03-17T00:18:22.428Z,13.00
2018-03-17T00:20:49.344Z,15.40
2018-03-17T00:23:16.181Z,19.03
2018-03-17T00:25:42.788Z,14.43
2018-03-17T00:28:10.821Z,18.20
2018-03-17T00:30:37.477Z,14.93
2018-03-17T00:33:04.157Z,17.17
2018-03-17T00:35:31.232Z,20.80
2018-03-17T00:37:57.887Z,18.20
2018-03-17T00:40:24.536Z,20.67
2018-03-17T00:42:51.647Z,29.20
2018-03-17T00:45:18.296Z,27.60
2018-03-17T00:47:44.968Z,22.93
2018-03-17T00:50:12.116Z,24.33
2018-03-17T00:52:38.858Z,22.53
2018-03-17T00:55:05.513Z,28.47
2018-03-17T00:57:32.663Z,25.83
2018-03-17T00:59:59.297Z,31.60
2018-03-17T01:02:25.948Z,16.93
2018-03-17T01:04:52.880Z,19.60
2018-03-17T01:07:19.532Z,37.33
2018-03-17T01:09:46.183Z,23.40
2018-03-17T01:12:13.114Z,27.67
2018-03-17T01:14:39.790Z,26.27
2018-03-17T01:17:06.478Z,23.97
2018-03-17T01:19:33.353Z,37.20
2018-03-17T01:22:00.000Z,46.20
2018-03-17T01:24:26.646Z,31.70
2018-03-17T01:26:53.577Z,32.67
2018-03-17T01:29:20.854Z,26.90
2018-03-17T01:31:47.509Z,30.10
2018-03-17T01:34:14.337Z,33.33
2018-03-17T01:36:40.983Z,32.83
2018-03-17T01:39:07.648Z,30.23
2018-03-17T01:41:34.654Z,28.80
2018-03-17T01:44:01.344Z,32.23
2018-03-17T01:46:28.009Z,32.13
2018-03-17T01:48:54.871Z,32.00
2018-03-17T01:51:21.520Z,51.27
2018-03-17T01:53:48.184Z,55.97
2018-03-17T01:56:15.092Z,41.27
2018-03-17T01:58:41.744Z,57.73
2018-03-17T02:01:08.404Z,39.57
2018-03-17T02:03:35.331Z,40.07
2018-03-17T02:06:01.983Z,47.80
2018-03-17T02:08:28.627Z,38.67
2018-03-17T02:10:55.561Z,35.33
2018-03-17T02:13:22.211Z,45.20
2018-03-17T02:15:48.860Z,33.57
2018-03-17T02:18:15.722Z,33.73
2018-03-17T02:20:42.382Z,38.07
2018-03-17T02:23:09.033Z,34.03
2018-03-17T02:25:36.020Z,35.47
2018-03-17T02:28:02.673Z,40.47
2018-03-17T02:30:29.962Z,37.60
2018-03-17T02:32:56.864Z,29.83
2018-03-17T02:35:23.513Z,41.77
2018-03-17T02:37:50.170Z,32.77
2018-03-17T02:40:17.093Z,33.00
2018-03-17T02:42:43.748Z,29.97
2018-03-17T02:45:10.405Z,34.97
2018-03-17T02:47:37.652Z,30.70
2018-03-17T02:50:04.314Z,34.50
2018-03-17T02:52:31.040Z,33.17
2018-03-17T02:54:58.189Z,25.43
2018-03-17T02:57:24.863Z,22.90
2018-03-17T02:59:51.515Z,29.30
2018-03-17T03:02:18.378Z,27.53
2018-03-17T03:04:45.044Z,26.53
2018-03-17T03:07:11.704Z,23.90
2018-03-17T03:09:38.688Z,22.70
2018-03-17T03:12:05.349Z,27.83
2018-03-17T03:14:32.002Z,29.30
2018-03-17T03:16:59.177Z,25.50
2018-03-17T03:19:25.828Z,24.80
2018-03-17T03:21:52.491Z,28.87
2018-03-17T03:24:19.657Z,31.00
2018-03-17T03:26:46.314Z,35.50
2018-03-17T03:29:12.963Z,30.30
2018-03-17T03:31:40.568Z,30.63
2018-03-17T03:34:07.224Z,35.17
2018-03-17T03:36:33.868Z,33.33
2018-03-17T03:39:00.778Z,27.83
2018-03-17T03:41:27.431Z,35.67
2018-03-17T03:43:54.080Z,45.50
2018-03-17T03:46:20.949Z,28.73
2018-03-17T03:48:47.605Z,27.90
2018-03-17T03:51:14.260Z,41.43
2018-03-17T03:53:41.231Z,31.53
2018-03-17T03:56:07.879Z,32.07
2018-03-17T03:58:34.537Z,29.33
2018-03-17T04:01:01.829Z,31.53
2018-03-17T04:03:28.445Z,39.67
2018-03-17T04:05:55.092Z,48.93
2018-03-17T04:08:21.998Z,63.13
2018-03-17T04:10:48.650Z,79.33
2018-03-17T04:13:15.304Z,82.23
2018-03-17T04:15:42.226Z,100.87
2018-03-17T04:18:08.881Z,93.33
2018-03-17T04:20:35.555Z,118.07
2018-03-17T04:23:02.764Z,98.90
2018-03-17T04:25:29.416Z,106.27
2018-03-17T04:27:56.068Z,121.17
2018-03-17T04:30:23.004Z,97.67
2018-03-17T04:32:50.284Z,101.03
2018-03-17T04:35:16.945Z,88.93
2018-03-17T04:37:44.044Z,89.30
2018-03-17T04:40:10.692Z,89.90
2018-03-17T04:42:37.360Z,100.07
2018-03-17T04:45:04.372Z,92.43
2018-03-17T04:47:31.023Z,89.53
2018-03-17T04:49:57.688Z,92.10
2018-03-17T04:52:24.608Z,84.47
2018-03-17T04:54:51.263Z,84.17
2018-03-17T04:57:18.191Z,81.20
2018-03-17T04:59:45.145Z,92.70
2018-03-17T05:02:11.820Z,88.93
2018-03-17T05:04:38.467Z,90.37
2018-03-17T05:07:05.373Z,77.57
2018-03-17T05:09:32.028Z,81.50
2018-03-17T05:11:58.675Z,94.30
2018-03-17T05:14:26.211Z,103.87
2018-03-17T05:16:52.857Z,95.43
2018-03-17T05:19:19.508Z,118.07
2018-03-17T05:21:46.748Z,89.50
2018-03-17T05:24:13.393Z,84.83
2018-03-17T05:26:40.054Z,96.93
2018-03-17T05:29:06.984Z,79.97
2018-03-17T05:31:33.629Z,74.13
2018-03-17T05:34:00.499Z,94.33
2018-03-17T05:36:27.514Z,95.77
2018-03-17T05:38:54.172Z,65.00
2018-03-17T05:41:20.819Z,73.83
2018-03-17T05:43:47.747Z,67.67
2018-03-17T05:46:14.392Z,65.20
2018-03-17T05:48:41.041Z,60.83
2018-03-17T05:51:07.981Z,63.27
2018-03-17T05:53:34.637Z,60.90
2018-03-17T05:56:01.297Z,63.40
2018-03-17T05:58:28.805Z,57.83
2018-03-17T06:00:55.461Z,60.57
2018-03-17T06:03:22.115Z,62.73
2018-03-17T06:05:49.355Z,54.63
2018-03-17T06:08:16.016Z,46.37
2018-03-17T06:10:42.674Z,53.90
2018-03-17T06:13:09.592Z,66.57
2018-03-17T06:15:36.238Z,61.63
2018-03-17T06:18:02.891Z,50.60
2018-03-17T06:20:30.020Z,53.07
2018-03-17T06:22:56.664Z,50.23
2018-03-17T06:25:23.318Z,54.57
2018-03-17T06:27:50.352Z,50.03
2018-03-17T06:30:17.005Z,47.80
2018-03-17T06:32:43.657Z,49.07
2018-03-17T06:35:10.598Z,63.43
2018-03-17T06:37:37.241Z,56.00
2018-03-17T06:40:03.887Z,49.53
2018-03-17T06:42:31.128Z,43.90
2018-03-17T06:44:57.771Z,48.87
2018-03-17T06:47:24.424Z,45.77
2018-03-17T06:49:51.360Z,51.00
2018-03-17T06:52:18.012Z,48.77
2018-03-17T06:54:44.671Z,55.90
2018-03-17T06:57:11.658Z,51.77
2018-03-17T06:59:38.374Z,62.07
2018-03-17T07:02:05.005Z,52.23
2018-03-17T07:04:32.084Z,55.50
2018-03-17T07:06:58.799Z,54.37
2018-03-17T07:09:25.421Z,57.83
2018-03-17T07:11:52.356Z,48.10
2018-03-17T07:14:19.017Z,47.83
2018-03-17T07:16:45.672Z,47.10
2018-03-17T07:19:12.620Z,60.83
2018-03-17T07:21:39.245Z,67.07
2018-03-17T07:24:05.912Z,53.40
2018-03-17T07:26:32.802Z,46.73
2018-03-17T07:28:59.463Z,49.47
2018-03-17T07:31:26.113Z,49.90
2018-03-17T07:33:53.338Z,48.63
2018-03-17T07:36:20.408Z,42.50
2018-03-17T07:38:47.057Z,47.77
2018-03-17T07:41:14.184Z,43.17
2018-03-17T07:43:40.838Z,42.53
2018-03-17T07:46:07.500Z,44.23
2018-03-17T07:48:34.715Z,56.50
2018-03-17T07:51:01.365Z,52.30
2018-03-17T07:53:28.016Z,54.00
2018-03-17T07:55:54.952Z,45.53
2018-03-17T07:58:21.609Z,42.70
2018-03-17T08:00:48.257Z,44.67
2018-03-17T08:03:15.790Z,41.10
2018-03-17T08:05:42.444Z,50.50
2018-03-17T08:08:09.105Z,41.20
2018-03-17T08:10:36.031Z,33.63
2018-03-17T08:13:02.696Z,41.50
2018-03-17T08:15:29.345Z,47.30
2018-03-17T08:17:56.248Z,38.80
2018-03-17T08:20:22.913Z,45.33
2018-03-17T08:22:49.568Z,39.00
2018-03-17T08:25:16.477Z,52.53
2018-03-17T08:27:43.224Z,49.80
2018-03-17T08:30:09.892Z,34.40
2018-03-17T08:32:36.713Z,53.63
2018-03-17T08:35:03.355Z,31.30
2018-03-17T08:37:30.248Z,35.53
2018-03-17T08:39:57.452Z,47.03
2018-03-17T08:42:24.104Z,38.73
2018-03-17T08:44:50.748Z,48.43
2018-03-17T08:47:17.991Z,40.70
2018-03-17T08:49:44.641Z,47.90
2018-03-17T08:52:11.296Z,42.80
2018-03-17T08:54:38.329Z,34.23
2018-03-17T08:57:04.995Z,38.13
2018-03-17T08:59:31.647Z,39.57
2018-03-17T09:01:58.560Z,32.37
2018-03-17T09:04:25.206Z,31.93
2018-03-17T09:06:51.877Z,32.67
2018-03-17T09:09:19.089Z,36.03
2018-03-17T09:11:45.749Z,30.03
2018-03-17T09:14:12.402Z,28.07
2018-03-17T09:16:39.320Z,41.03
2018-03-17T09:19:05.981Z,39.97
2018-03-17T09:21:32.627Z,38.20
2018-03-17T09:23:59.855Z,34.00
2018-03-17T09:26:26.509Z,30.80
2018-03-17T09:28:53.152Z,30.50
2018-03-17T09:31:20.391Z,42.23
2018-03-17T09:33:47.053Z,33.33
2018-03-17T09:36:13.705Z,32.87
2018-03-17T09:38:40.916Z,30.20
2018-03-17T09:41:07.582Z,39.80
2018-03-17T09:43:34.243Z,35.03
2018-03-17T09:46:01.159Z,32.67
2018-03-17T09:48:27.806Z,28.23
2018-03-17T09:50:54.473Z,33.57
2018-03-17T09:53:21.468Z,58.50
2018-03-17T09:55:48.124Z,38.50
2018-03-17T09:58:14.800Z,40.57
2018-03-17T10:00:41.615Z,34.23
2018-03-17T10:03:08.294Z,33.43
2018-03-17T10:05:34.938Z,36.33
2018-03-17T10:08:01.865Z,32.27
2018-03-17T10:10:28.507Z,42.43
2018-03-17T10:12:55.195Z,47.90
2018-03-17T10:15:22.074Z,34.90
2018-03-17T10:17:48.740Z,32.63
2018-03-17T10:20:15.390Z,35.77
2018-03-17T10:22:42.610Z,38.47
2018-03-17T10:25:09.276Z,27.20
2018-03-17T10:27:35.930Z,40.80
2018-03-17T10:30:03.004Z,36.00
2018-03-17T10:32:29.663Z,36.33
2018-03-17T10:34:56.312Z,32.70
2018-03-17T10:37:23.372Z,42.57
2018-03-17T10:39:52.184Z,42.57
2018-03-17T10:42:18.874Z,27.80
2018-03-17T10:44:46.068Z,27.50
2018-03-17T10:47:15.618Z,30.60
2018-03-17T10:49:42.277Z,31.27
2018-03-17T10:52:09.179Z,30.00
2018-03-17T10:54:35.836Z,29.70
2018-03-17T10:57:02.484Z,35.67
2018-03-17T10:59:29.595Z,31.73
2018-03-17T11:02:01.878Z,42.87
2018-03-17T11:04:28.539Z,30.17
2018-03-17T11:06:56.579Z,43.37
2018-03-17T11:09:23.232Z,42.00
2018-03-17T11:11:49.891Z,50.40
2018-03-17T11:14:16.809Z,33.60
2018-03-17T11:16:43.464Z,45.57
2018-03-17T11:19:10.114Z,36.47
2018-03-17T11:21:37.037Z,38.90
2018-03-17T11:24:03.693Z,37.30
2018-03-17T11:26:30.349Z,48.90
2018-03-17T11:28:57.273Z,37.10
2018-03-17T11:31:23.924Z,40.83
2018-03-17T11:33:50.581Z,34.57
2018-03-17T11:36:17.498Z,36.23
2018-03-17T11:38:44.156Z,42.60
2018-03-17T11:41:11.008Z,41.80
2018-03-17T11:43:38.041Z,45.70
2018-03-17T11:46:04.691Z,40.77
2018-03-17T11:48:31.348Z,45.67
2018-03-17T11:50:58.565Z,60.53
2018-03-17T11:53:25.228Z,51.47
2018-03-17T11:55:51.881Z,43.03
2018-03-17T11:58:18.817Z,41.00
2018-03-17T12:00:45.486Z,40.57
2018-03-17T12:03:12.133Z,37.83
2018-03-17T12:05:39.039Z,45.10
2018-03-17T12:08:05.692Z,35.60
2018-03-17T12:10:32.345Z,38.20
2018-03-17T12:12:59.265Z,40.07
2018-03-17T12:15:26.006Z,41.17
2018-03-17T12:17:52.652Z,40.63
2018-03-17T12:20:19.798Z,39.40
2018-03-17T12:22:46.460Z,44.57
2018-03-17T12:25:13.116Z,39.17
2018-03-17T12:27:40.033Z,57.93
2018-03-17T12:30:06.696Z,38.30
2018-03-17T12:32:33.356Z,41.13
2018-03-17T12:35:00.565Z,44.07
2018-03-17T12:37:27.310Z,64.40
2018-03-17T12:39:53.957Z,39.63
2018-03-17T12:42:21.667Z,36.93
2018-03-17T12:44:48.313Z,65.37
2018-03-17T12:47:14.964Z,33.00
2018-03-17T12:49:42.240Z,50.50
2018-03-17T12:52:08.890Z,47.10
2018-03-17T12:54:35.543Z,42.33
2018-03-17T12:57:02.491Z,37.27
2018-03-17T12:59:29.151Z,40.60
2018-03-17T13:01:55.817Z,38.90
2018-03-17T13:04:23.025Z,39.70
2018-03-17T13:06:49.685Z,36.07
2018-03-17T13:09:16.323Z,38.60
2018-03-17T13:11:43.248Z,36.37
2018-03-17T13:14:09.904Z,33.70
2018-03-17T13:16:36.553Z,42.63
2018-03-17T13:19:03.473Z,37.40
2018-03-17T13:21:30.153Z,46.70
2018-03-17T13:23:56.789Z,49.07
2018-03-17T13:26:23.706Z,35.83
2018-03-17T13:28:50.356Z,33.03
2018-03-17T13:31:17.012Z,39.70
2018-03-17T13:33:44.252Z,31.70
2018-03-17T13:36:16.663Z,43.70
2018-03-17T13:38:43.311Z,44.17
2018-03-17T13:41:10.576Z,35.87
2018-03-17T13:43:37.587Z,29.23
2018-03-17T13:46:04.242Z,41.10
2018-03-17T13:48:31.284Z,31.70
2018-03-17T13:50:57.939Z,29.07
2018-03-17T13:53:24.597Z,34.73
2018-03-17T13:55:51.690Z,39.63
2018-03-17T13:58:18.336Z,33.23
2018-03-17T14:00:45.000Z,28.10
2018-03-17T14:03:12.223Z,43.17
2018-03-17T14:05:38.876Z,27.10
2018-03-17T14:08:05.523Z,26.53
2018-03-17T14:10:32.760Z,26.67
2018-03-17T14:12:59.404Z,30.00
2018-03-17T14:15:26.045Z,26.20
2018-03-17T14:17:52.944Z,26.83
2018-03-17T14:20:19.593Z,31.17
2018-03-17T14:22:46.248Z,28.00
2018-03-17T14:25:13.219Z,29.73
2018-03-17T14:27:39.866Z,32.40
2018-03-17T14:30:06.528Z,28.57
2018-03-17T14:32:33.443Z,28.80
2018-03-17T14:35:00.089Z,28.00
2018-03-17T14:37:26.746Z,22.37
2018-03-17T14:39:53.682Z,27.60
2018-03-17T14:42:21.552Z,30.67
2018-03-17T14:44:49.333Z,23.93
2018-03-17T14:47:16.468Z,19.83
2018-03-17T14:49:43.125Z,29.13
2018-03-17T14:52:09.774Z,23.87
2018-03-17T14:54:36.908Z,26.97
2018-03-17T14:57:03.561Z,20.50
2018-03-17T14:59:30.224Z,17.83
2018-03-17T15:01:57.003Z,17.20
2018-03-17T15:04:23.652Z,20.63
2018-03-17T15:06:50.299Z,24.20
2018-03-17T15:09:17.423Z,13.03
2018-03-17T15:11:44.041Z,15.17
2018-03-17T15:14:10.696Z,14.40
2018-03-17T15:16:37.902Z,12.57
2018-03-17T15:19:04.562Z,22.97
2018-03-17T15:21:31.225Z,14.07
2018-03-17T15:23:58.438Z,13.13
2018-03-17T15:26:25.100Z,20.80
2018-03-17T15:28:51.748Z,13.00
2018-03-17T15:31:18.668Z,13.17
2018-03-17T15:33:45.356Z,11.73
2018-03-17T15:36:11.983Z,17.07
2018-03-17T15:38:38.887Z,14.10
2018-03-17T15:41:05.540Z,17.43
2018-03-17T15:43:32.187Z,19.73
2018-03-17T15:45:59.584Z,15.63
2018-03-17T15:48:26.232Z,14.67
2018-03-17T15:50:52.881Z,13.00
2018-03-17T15:53:19.971Z,13.77
2018-03-17T15:55:46.625Z,23.70
2018-03-17T15:58:13.276Z,18.47
2018-03-17T16:00:40.208Z,21.13
2018-03-17T16:03:06.856Z,20.13
2018-03-17T16:05:33.509Z,14.53
2018-03-17T16:08:00.637Z,19.60
2018-03-17T16:10:27.294Z,14.83
2018-03-17T16:12:53.941Z,18.40
2018-03-17T16:15:20.956Z,25.73
2018-03-17T16:17:47.607Z,24.07
2018-03-17T16:20:14.256Z,19.73
2018-03-17T16:22:41.201Z,39.87
2018-03-17T16:25:07.899Z,16.10
2018-03-17T16:27:34.528Z,25.60
2018-03-17T16:30:01.454Z,22.47
2018-03-17T16:32:28.103Z,32.27
2018-03-17T16:34:54.753Z,27.83
2018-03-17T16:37:21.964Z,29.53
2018-03-17T16:39:48.615Z,25.10
2018-03-17T16:42:15.268Z,26.30
2018-03-17T16:44:42.194Z,23.40
2018-03-17T16:47:10.400Z,30.03
2018-03-17T16:49:37.052Z,33.90
2018-03-17T16:52:04.273Z,25.63
2018-03-17T16:54:30.928Z,22.17
2018-03-17T16:56:57.569Z,24.67
2018-03-17T16:59:24.500Z,38.90
2018-03-17T17:01:51.156Z,45.97
2018-03-17T17:04:17.806Z,26.77
2018-03-17T17:06:44.721Z,30.27
2018-03-17T17:09:11.367Z,29.90
2018-03-17T17:11:38.016Z,30.87
2018-03-17T17:14:04.892Z,30.27
2018-03-17T17:16:31.548Z,29.80
2018-03-17T17:18:58.193Z,30.83
2018-03-17T17:21:25.120Z,34.83
2018-03-17T17:23:51.766Z,27.10
2018-03-17T17:26:18.424Z,29.13
2018-03-17T17:28:45.410Z,30.97
2018-03-17T17:31:12.053Z,26.50
2018-03-17T17:33:38.708Z,33.97
2018-03-17T17:36:05.670Z,28.30
2018-03-17T17:38:32.385Z,44.43
2018-03-17T17:40:59.033Z,30.10
2018-03-17T17:43:26.174Z,30.80
2018-03-17T17:45:52.841Z,31.33
2018-03-17T17:48:20.023Z,48.43
2018-03-17T17:50:47.286Z,34.50
2018-03-17T17:53:13.942Z,32.57
2018-03-17T17:55:40.588Z,29.23
2018-03-17T17:58:07.564Z,25.73
2018-03-17T18:00:34.213Z,38.10
2018-03-17T18:03:00.874Z,26.90
2018-03-17T18:05:28.718Z,35.77
2018-03-17T18:07:55.429Z,40.20
2018-03-17T18:10:22.038Z,33.63
2018-03-17T18:12:48.939Z,39.03
2018-03-17T18:15:15.600Z,44.43
2018-03-17T18:17:42.255Z,43.93
2018-03-17T18:20:09.182Z,39.63
2018-03-17T18:22:35.829Z,38.67
2018-03-17T18:25:02.485Z,36.33
2018-03-17T18:27:29.402Z,30.60
2018-03-17T18:29:56.055Z,59.03
2018-03-17T18:32:22.717Z,40.90
2018-03-17T18:34:49.629Z,36.13
2018-03-17T18:37:16.288Z,46.10
2018-03-17T18:39:42.944Z,34.93
2018-03-17T18:42:10.163Z,31.40
2018-03-17T18:44:36.813Z,43.13
2018-03-17T18:47:03.475Z,34.90
2018-03-17T18:49:31.009Z,51.67
2018-03-17T18:51:57.652Z,39.13
2018-03-17T18:54:24.307Z,37.30
2018-03-17T18:56:51.232Z,46.50
2018-03-17T18:59:17.878Z,41.53
2018-03-17T19:01:44.531Z,47.57
2018-03-17T19:04:11.476Z,50.00
2018-03-17T19:06:38.141Z,44.20
2018-03-17T19:09:04.821Z,39.43
2018-03-17T19:11:32.027Z,40.90
2018-03-17T19:13:58.668Z,49.87
2018-03-17T19:16:25.324Z,38.00
2018-03-17T19:18:52.532Z,38.90
2018-03-17T19:21:19.180Z,56.40
2018-03-17T19:23:45.831Z,45.20
2018-03-17T19:26:13.085Z,37.23
2018-03-17T19:28:39.738Z,46.70
2018-03-17T19:31:06.402Z,44.10
2018-03-17T19:33:33.621Z,58.97
2018-03-17T19:36:00.268Z,40.30
2018-03-17T19:38:26.913Z,52.53
2018-03-17T19:40:53.843Z,54.10
2018-03-17T19:43:20.535Z,41.03
2018-03-17T19:45:47.173Z,45.97
2018-03-17T19:48:14.183Z,48.90
2018-03-17T19:50:41.372Z,47.80
2018-03-17T19:53:08.027Z,46.30
2018-03-17T19:55:34.992Z,57.57
2018-03-17T19:58:01.650Z,47.97
2018-03-17T20:00:28.307Z,39.40
2018-03-17T20:02:55.454Z,55.63
2018-03-17T20:05:22.101Z,45.13
2018-03-17T20:07:48.755Z,39.63
2018-03-17T20:10:15.683Z,40.77
2018-03-17T20:12:42.333Z,65.63
2018-03-17T20:15:08.991Z,34.63
2018-03-17T20:17:35.893Z,53.23
2018-03-17T20:20:02.565Z,46.93
2018-03-17T20:22:29.209Z,53.43
2018-03-17T20:24:56.456Z,51.07
2018-03-17T20:27:23.112Z,44.17
2018-03-17T20:29:49.758Z,54.33
2018-03-17T20:32:17.252Z,44.47
2018-03-17T20:34:43.939Z,51.97
2018-03-17T20:37:10.570Z,47.70
2018-03-17T20:39:37.538Z,59.60
2018-03-17T20:42:04.242Z,57.50
2018-03-17T20:44:30.937Z,43.73
2018-03-17T20:46:58.055Z,48.10
2018-03-17T20:49:24.704Z,45.50
2018-03-17T20:51:52.184Z,47.97
2018-03-17T20:54:19.230Z,46.77
2018-03-17T20:56:45.873Z,47.03
2018-03-17T20:59:15.757Z,52.37
2018-03-17T21:01:42.822Z,47.07
2018-03-17T21:04:09.487Z,49.87
2018-03-17T21:06:36.146Z,62.20
2018-03-17T21:09:03.351Z,51.03
2018-03-17T21:11:30.021Z,49.17
2018-03-17T21:13:56.680Z,66.70
2018-03-17T21:16:23.575Z,52.50
2018-03-17T21:18:50.223Z,57.93
2018-03-17T21:21:16.876Z,44.87
2018-03-17T21:23:43.809Z,54.83
2018-03-17T21:26:10.460Z,41.17
2018-03-17T21:28:37.112Z,59.90
2018-03-17T21:31:04.045Z,47.10
2018-03-17T21:33:30.692Z,46.40
2018-03-17T21:35:57.344Z,39.63
2018-03-17T21:38:24.304Z,43.00
2018-03-17T21:40:50.988Z,41.03
2018-03-17T21:43:17.658Z,47.67
2018-03-17T21:45:44.813Z,45.40
2018-03-17T21:48:11.465Z,43.30
2018-03-17T21:50:38.119Z,39.83
2018-03-17T21:53:05.357Z,39.40
2018-03-17T21:55:32.010Z,48.27
2018-03-17T21:57:58.660Z,44.03
2018-03-17T22:00:25.582Z,40.23
2018-03-17T22:02:52.230Z,34.23
2018-03-17T22:05:18.880Z,49.77
2018-03-17T22:07:46.475Z,34.33
2018-03-17T22:10:13.096Z,42.17
2018-03-17T22:12:39.751Z,51.13
2018-03-17T22:15:06.655Z,46.10
2018-03-17T22:17:33.306Z,35.67
2018-03-17T22:19:59.953Z,40.10
2018-03-17T22:22:27.188Z,39.97
2018-03-17T22:24:53.852Z,38.30
2018-03-17T22:27:20.502Z,55.57
2018-03-17T22:29:47.342Z,34.20
2018-03-17T22:32:14.004Z,59.00
2018-03-17T22:34:40.652Z,40.93
2018-03-17T22:37:07.644Z,35.00
2018-03-17T22:39:34.289Z,40.47
2018-03-17T22:42:00.950Z,48.33
2018-03-17T22:44:27.821Z,37.80
2018-03-17T22:46:54.481Z,52.07
2018-03-17T22:49:21.156Z,34.73
2018-03-17T22:51:48.109Z,40.30
2018-03-17T22:54:15.376Z,44.43
2018-03-17T22:56:42.027Z,44.73
2018-03-17T22:59:09.254Z,35.17
2018-03-17T23:01:35.895Z,36.30
2018-03-17T23:04:02.572Z,36.20
2018-03-17T23:06:29.484Z,39.70
2018-03-17T23:08:56.128Z,45.03
2018-03-17T23:11:22.776Z,37.83
2018-03-17T23:13:50.004Z,33.20
2018-03-17T23:16:16.649Z,50.53
2018-03-17T23:18:43.304Z,40.70
2018-03-17T23:21:10.256Z,38.70
2018-03-17T23:23:36.913Z,42.17
2018-03-17T23:26:03.568Z,44.83
2018-03-17T23:28:30.475Z,50.53
2018-03-17T23:30:57.132Z,46.10
2018-03-17T23:40:06.920Z,49.93
2018-03-17T23:42:33.576Z,48.83
2018-03-17T23:45:00.232Z,36.20
2018-03-17T23:47:27.454Z,44.57
2018-03-17T23:49:54.102Z,40.60
2018-03-17T23:52:20.774Z,47.07
2018-03-17T23:54:50.145Z,52.73
2018-03-17T23:57:16.797Z,43.43
2018-03-17T23:59:43.476Z,45.00
